sensor_id;sensor_type;location;lat;lon;timestamp;P1;durP1;ratioP1;P2;durP2;ratioP2
74821;SDS011;63353;48.702;8.884;2023-05-29T00:01:31;10.47;;;7.93;;
74821;SDS011;63353;48.702;8.884;2023-05-29T00:03:56;9.10;;;7.50;;
74821;SDS011;63353;48.702;8.884;2023-05-29T00:06:25;10.73;;;7.60;;
74821;SDS011;63353;48.702;8.884;2023-05-29T00:08:51;10.50;;;7.47;;
74821;SDS011;63353;48.702;8.884;2023-05-29T00:11:16;12.53;;;7.83;;
74821;SDS011;63353;48.702;8.884;2023-05-29T00:13:42;10.37;;;8.07;;
74821;SDS011;63353;48.702;8.884;2023-05-29T00:16:07;9.83;;;7.57;;
74821;SDS011;63353;48.702;8.884;2023-05-29T00:18:34;10.73;;;8.20;;
74821;SDS011;63353;48.702;8.884;2023-05-29T00:21:10;10.50;;;8.20;;
74821;SDS011;63353;48.702;8.884;2023-05-29T00:23:37;12.00;;;8.10;;
74821;SDS011;63353;48.702;8.884;2023-05-29T00:26:03;10.13;;;7.47;;
74821;SDS011;63353;48.702;8.884;2023-05-29T00:28:29;10.13;;;7.70;;
74821;SDS011;63353;48.702;8.884;2023-05-29T00:31:07;9.67;;;7.73;;
74821;SDS011;63353;48.702;8.884;2023-05-29T00:33:33;10.40;;;7.90;;
74821;SDS011;63353;48.702;8.884;2023-05-29T00:35:58;10.33;;;7.70;;
74821;SDS011;63353;48.702;8.884;2023-05-29T00:38:24;11.30;;;7.63;;
74821;SDS011;63353;48.702;8.884;2023-05-29T00:40:58;10.33;;;8.00;;
74821;SDS011;63353;48.702;8.884;2023-05-29T00:43:30;8.50;;;7.60;;
74821;SDS011;63353;48.702;8.884;2023-05-29T00:45:56;10.97;;;8.13;;
74821;SDS011;63353;48.702;8.884;2023-05-29T00:48:22;8.93;;;8.03;;
74821;SDS011;63353;48.702;8.884;2023-05-29T00:50:48;11.27;;;8.07;;
74821;SDS011;63353;48.702;8.884;2023-05-29T00:53:13;8.93;;;7.97;;
74821;SDS011;63353;48.702;8.884;2023-05-29T00:55:43;11.13;;;8.50;;
74821;SDS011;63353;48.702;8.884;2023-05-29T00:58:12;10.87;;;8.20;;
74821;SDS011;63353;48.702;8.884;2023-05-29T01:00:44;10.73;;;7.80;;
74821;SDS011;63353;48.702;8.884;2023-05-29T01:03:10;9.83;;;8.03;;
74821;SDS011;63353;48.702;8.884;2023-05-29T01:05:39;11.67;;;8.03;;
74821;SDS011;63353;48.702;8.884;2023-05-29T01:08:12;8.40;;;7.43;;
74821;SDS011;63353;48.702;8.884;2023-05-29T01:10:47;11.97;;;7.97;;
74821;SDS011;63353;48.702;8.884;2023-05-29T01:13:21;11.47;;;7.53;;
74821;SDS011;63353;48.702;8.884;2023-05-29T01:15:59;9.10;;;7.73;;
74821;SDS011;63353;48.702;8.884;2023-05-29T01:21:20;13.50;;;7.50;;
74821;SDS011;63353;48.702;8.884;2023-05-29T01:29:26;8.50;;;7.40;;
74821;SDS011;63353;48.702;8.884;2023-05-29T01:31:58;9.97;;;7.43;;
74821;SDS011;63353;48.702;8.884;2023-05-29T01:34:27;9.10;;;7.27;;
74821;SDS011;63353;48.702;8.884;2023-05-29T01:36:53;10.33;;;7.47;;
74821;SDS011;63353;48.702;8.884;2023-05-29T01:39:27;10.53;;;7.80;;
74821;SDS011;63353;48.702;8.884;2023-05-29T01:41:58;9.90;;;7.53;;
74821;SDS011;63353;48.702;8.884;2023-05-29T01:44:25;11.43;;;7.30;;
74821;SDS011;63353;48.702;8.884;2023-05-29T01:46:54;8.87;;;7.27;;
74821;SDS011;63353;48.702;8.884;2023-05-29T01:49:22;10.77;;;7.57;;
74821;SDS011;63353;48.702;8.884;2023-05-29T01:51:58;10.17;;;7.73;;
74821;SDS011;63353;48.702;8.884;2023-05-29T01:54:27;10.83;;;7.50;;
74821;SDS011;63353;48.702;8.884;2023-05-29T01:56:52;9.77;;;7.50;;
74821;SDS011;63353;48.702;8.884;2023-05-29T01:59:21;10.43;;;7.40;;
74821;SDS011;63353;48.702;8.884;2023-05-29T02:01:47;9.67;;;7.20;;
74821;SDS011;63353;48.702;8.884;2023-05-29T02:04:13;11.93;;;8.00;;
74821;SDS011;63353;48.702;8.884;2023-05-29T02:06:39;8.37;;;7.33;;
74821;SDS011;63353;48.702;8.884;2023-05-29T02:09:05;10.77;;;7.67;;
74821;SDS011;63353;48.702;8.884;2023-05-29T02:11:37;9.13;;;7.50;;
74821;SDS011;63353;48.702;8.884;2023-05-29T02:14:03;11.13;;;7.30;;
74821;SDS011;63353;48.702;8.884;2023-05-29T02:16:29;8.67;;;7.23;;
74821;SDS011;63353;48.702;8.884;2023-05-29T02:18:58;11.07;;;7.13;;
74821;SDS011;63353;48.702;8.884;2023-05-29T02:21:24;8.37;;;7.43;;
74821;SDS011;63353;48.702;8.884;2023-05-29T02:24:02;8.97;;;7.17;;
74821;SDS011;63353;48.702;8.884;2023-05-29T02:26:37;10.77;;;7.93;;
74821;SDS011;63353;48.702;8.884;2023-05-29T02:29:05;11.43;;;7.27;;
74821;SDS011;63353;48.702;8.884;2023-05-29T02:31:31;8.33;;;7.10;;
74821;SDS011;63353;48.702;8.884;2023-05-29T02:33:59;10.63;;;8.03;;
74821;SDS011;63353;48.702;8.884;2023-05-29T02:36:25;9.93;;;7.20;;
74821;SDS011;63353;48.702;8.884;2023-05-29T02:38:53;10.27;;;7.30;;
74821;SDS011;63353;48.702;8.884;2023-05-29T02:41:19;10.37;;;6.93;;
74821;SDS011;63353;48.702;8.884;2023-05-29T02:43:45;11.53;;;7.80;;
74821;SDS011;63353;48.702;8.884;2023-05-29T02:46:14;9.87;;;7.57;;
74821;SDS011;63353;48.702;8.884;2023-05-29T02:48:43;11.17;;;7.87;;
74821;SDS011;63353;48.702;8.884;2023-05-29T02:51:14;10.20;;;7.63;;
74821;SDS011;63353;48.702;8.884;2023-05-29T02:53:40;10.50;;;7.60;;
74821;SDS011;63353;48.702;8.884;2023-05-29T02:56:06;10.37;;;7.70;;
74821;SDS011;63353;48.702;8.884;2023-05-29T02:58:55;11.57;;;7.60;;
74821;SDS011;63353;48.702;8.884;2023-05-29T03:01:21;9.50;;;6.87;;
74821;SDS011;63353;48.702;8.884;2023-05-29T03:03:46;9.50;;;7.47;;
74821;SDS011;63353;48.702;8.884;2023-05-29T03:06:12;10.67;;;7.73;;
74821;SDS011;63353;48.702;8.884;2023-05-29T03:08:38;9.93;;;7.33;;
74821;SDS011;63353;48.702;8.884;2023-05-29T03:11:07;9.83;;;8.03;;
74821;SDS011;63353;48.702;8.884;2023-05-29T03:13:35;9.80;;;7.43;;
74821;SDS011;63353;48.702;8.884;2023-05-29T03:16:02;12.47;;;7.70;;
74821;SDS011;63353;48.702;8.884;2023-05-29T03:18:27;9.73;;;7.47;;
74821;SDS011;63353;48.702;8.884;2023-05-29T03:20:56;9.63;;;7.67;;
74821;SDS011;63353;48.702;8.884;2023-05-29T03:23:22;9.60;;;7.23;;
74821;SDS011;63353;48.702;8.884;2023-05-29T03:25:48;11.40;;;8.00;;
74821;SDS011;63353;48.702;8.884;2023-05-29T03:28:13;10.97;;;7.50;;
74821;SDS011;63353;48.702;8.884;2023-05-29T03:30:40;9.93;;;7.47;;
74821;SDS011;63353;48.702;8.884;2023-05-29T03:33:05;10.53;;;7.50;;
74821;SDS011;63353;48.702;8.884;2023-05-29T03:35:31;7.87;;;7.07;;
74821;SDS011;63353;48.702;8.884;2023-05-29T03:37:58;8.87;;;7.57;;
74821;SDS011;63353;48.702;8.884;2023-05-29T03:40:24;11.30;;;7.90;;
74821;SDS011;63353;48.702;8.884;2023-05-29T03:42:50;11.03;;;7.37;;
74821;SDS011;63353;48.702;8.884;2023-05-29T03:45:16;11.83;;;7.83;;
74821;SDS011;63353;48.702;8.884;2023-05-29T03:47:41;14.17;;;8.27;;
74821;SDS011;63353;48.702;8.884;2023-05-29T03:50:07;11.23;;;8.23;;
74821;SDS011;63353;48.702;8.884;2023-05-29T03:52:33;10.13;;;7.77;;
74821;SDS011;63353;48.702;8.884;2023-05-29T03:54:59;10.67;;;8.00;;
74821;SDS011;63353;48.702;8.884;2023-05-29T03:57:24;11.40;;;7.67;;
74821;SDS011;63353;48.702;8.884;2023-05-29T03:59:51;7.97;;;7.17;;
74821;SDS011;63353;48.702;8.884;2023-05-29T04:02:16;10.60;;;7.80;;
74821;SDS011;63353;48.702;8.884;2023-05-29T04:04:42;13.40;;;7.67;;
74821;SDS011;63353;48.702;8.884;2023-05-29T04:07:08;12.23;;;8.40;;
74821;SDS011;63353;48.702;8.884;2023-05-29T04:09:34;11.00;;;8.57;;
74821;SDS011;63353;48.702;8.884;2023-05-29T04:12:00;12.60;;;7.83;;
74821;SDS011;63353;48.702;8.884;2023-05-29T04:14:27;11.37;;;7.60;;
74821;SDS011;63353;48.702;8.884;2023-05-29T04:16:53;11.43;;;8.10;;
74821;SDS011;63353;48.702;8.884;2023-05-29T04:19:19;11.30;;;8.20;;
74821;SDS011;63353;48.702;8.884;2023-05-29T04:21:46;11.47;;;8.30;;
74821;SDS011;63353;48.702;8.884;2023-05-29T04:24:13;9.77;;;8.20;;
74821;SDS011;63353;48.702;8.884;2023-05-29T04:26:39;10.77;;;8.10;;
74821;SDS011;63353;48.702;8.884;2023-05-29T04:29:06;10.27;;;7.90;;
74821;SDS011;63353;48.702;8.884;2023-05-29T04:31:37;9.97;;;7.70;;
74821;SDS011;63353;48.702;8.884;2023-05-29T04:34:03;9.70;;;7.93;;
74821;SDS011;63353;48.702;8.884;2023-05-29T04:36:31;10.93;;;8.03;;
74821;SDS011;63353;48.702;8.884;2023-05-29T04:39:04;12.47;;;8.93;;
74821;SDS011;63353;48.702;8.884;2023-05-29T04:41:30;11.90;;;8.37;;
74821;SDS011;63353;48.702;8.884;2023-05-29T04:43:56;10.90;;;8.40;;
74821;SDS011;63353;48.702;8.884;2023-05-29T04:46:22;11.47;;;8.47;;
74821;SDS011;63353;48.702;8.884;2023-05-29T04:48:49;10.90;;;8.27;;
74821;SDS011;63353;48.702;8.884;2023-05-29T04:51:18;11.13;;;8.80;;
74821;SDS011;63353;48.702;8.884;2023-05-29T04:53:45;11.63;;;8.00;;
74821;SDS011;63353;48.702;8.884;2023-05-29T04:56:11;11.87;;;8.03;;
74821;SDS011;63353;48.702;8.884;2023-05-29T04:58:37;9.17;;;8.20;;
74821;SDS011;63353;48.702;8.884;2023-05-29T05:01:03;10.93;;;8.13;;
74821;SDS011;63353;48.702;8.884;2023-05-29T05:03:29;9.70;;;7.53;;
74821;SDS011;63353;48.702;8.884;2023-05-29T05:06:02;11.50;;;8.00;;
74821;SDS011;63353;48.702;8.884;2023-05-29T05:08:30;13.13;;;7.87;;
74821;SDS011;63353;48.702;8.884;2023-05-29T05:10:57;9.57;;;7.97;;
74821;SDS011;63353;48.702;8.884;2023-05-29T05:13:24;9.80;;;7.37;;
74821;SDS011;63353;48.702;8.884;2023-05-29T05:15:50;9.97;;;7.20;;
74821;SDS011;63353;48.702;8.884;2023-05-29T05:18:16;10.60;;;7.60;;
74821;SDS011;63353;48.702;8.884;2023-05-29T05:20:41;11.53;;;7.70;;
74821;SDS011;63353;48.702;8.884;2023-05-29T05:23:07;10.50;;;8.00;;
74821;SDS011;63353;48.702;8.884;2023-05-29T05:25:33;10.93;;;7.90;;
74821;SDS011;63353;48.702;8.884;2023-05-29T05:28:00;8.27;;;7.47;;
74821;SDS011;63353;48.702;8.884;2023-05-29T05:30:28;9.77;;;7.00;;
74821;SDS011;63353;48.702;8.884;2023-05-29T05:32:54;10.60;;;7.23;;
74821;SDS011;63353;48.702;8.884;2023-05-29T05:35:20;11.80;;;7.43;;
74821;SDS011;63353;48.702;8.884;2023-05-29T05:37:46;8.90;;;7.07;;
74821;SDS011;63353;48.702;8.884;2023-05-29T05:40:11;8.03;;;6.53;;
74821;SDS011;63353;48.702;8.884;2023-05-29T05:42:37;9.17;;;6.53;;
74821;SDS011;63353;48.702;8.884;2023-05-29T05:45:03;12.57;;;6.43;;
74821;SDS011;63353;48.702;8.884;2023-05-29T05:47:31;7.70;;;6.63;;
74821;SDS011;63353;48.702;8.884;2023-05-29T05:49:57;8.97;;;6.50;;
74821;SDS011;63353;48.702;8.884;2023-05-29T05:52:24;10.67;;;6.73;;
74821;SDS011;63353;48.702;8.884;2023-05-29T05:54:51;8.10;;;6.60;;
74821;SDS011;63353;48.702;8.884;2023-05-29T05:57:17;8.00;;;6.80;;
74821;SDS011;63353;48.702;8.884;2023-05-29T05:59:48;7.90;;;6.87;;
74821;SDS011;63353;48.702;8.884;2023-05-29T06:02:14;9.60;;;7.03;;
74821;SDS011;63353;48.702;8.884;2023-05-29T06:04:40;7.53;;;6.70;;
74821;SDS011;63353;48.702;8.884;2023-05-29T06:07:08;8.60;;;7.17;;
74821;SDS011;63353;48.702;8.884;2023-05-29T06:09:34;8.50;;;6.63;;
74821;SDS011;63353;48.702;8.884;2023-05-29T06:12:00;8.40;;;7.37;;
74821;SDS011;63353;48.702;8.884;2023-05-29T06:14:26;9.33;;;6.97;;
74821;SDS011;63353;48.702;8.884;2023-05-29T06:16:58;10.30;;;7.20;;
74821;SDS011;63353;48.702;8.884;2023-05-29T06:19:27;11.67;;;7.63;;
74821;SDS011;63353;48.702;8.884;2023-05-29T06:21:52;7.90;;;7.10;;
74821;SDS011;63353;48.702;8.884;2023-05-29T06:24:24;10.23;;;7.40;;
74821;SDS011;63353;48.702;8.884;2023-05-29T06:26:55;8.50;;;6.93;;
74821;SDS011;63353;48.702;8.884;2023-05-29T06:29:21;7.83;;;6.93;;
74821;SDS011;63353;48.702;8.884;2023-05-29T06:31:53;8.07;;;7.10;;
74821;SDS011;63353;48.702;8.884;2023-05-29T06:34:24;8.83;;;6.93;;
74821;SDS011;63353;48.702;8.884;2023-05-29T06:36:52;9.17;;;7.70;;
74821;SDS011;63353;48.702;8.884;2023-05-29T06:39:18;7.93;;;7.13;;
74821;SDS011;63353;48.702;8.884;2023-05-29T06:41:45;9.30;;;7.30;;
74821;SDS011;63353;48.702;8.884;2023-05-29T06:44:13;10.07;;;7.00;;
74821;SDS011;63353;48.702;8.884;2023-05-29T06:46:39;7.67;;;6.97;;
74821;SDS011;63353;48.702;8.884;2023-05-29T06:49:14;7.63;;;6.83;;
74821;SDS011;63353;48.702;8.884;2023-05-29T06:51:46;7.33;;;6.63;;
74821;SDS011;63353;48.702;8.884;2023-05-29T06:54:14;7.60;;;6.90;;
74821;SDS011;63353;48.702;8.884;2023-05-29T06:56:40;8.00;;;7.27;;
74821;SDS011;63353;48.702;8.884;2023-05-29T06:59:06;9.90;;;7.20;;
74821;SDS011;63353;48.702;8.884;2023-05-29T07:01:32;9.77;;;7.10;;
74821;SDS011;63353;48.702;8.884;2023-05-29T07:03:57;8.33;;;7.40;;
74821;SDS011;63353;48.702;8.884;2023-05-29T07:06:23;7.90;;;7.10;;
74821;SDS011;63353;48.702;8.884;2023-05-29T07:08:57;10.40;;;7.43;;
74821;SDS011;63353;48.702;8.884;2023-05-29T07:11:23;8.10;;;7.33;;
74821;SDS011;63353;48.702;8.884;2023-05-29T07:13:56;8.60;;;7.80;;
74821;SDS011;63353;48.702;8.884;2023-05-29T07:16:22;8.57;;;7.63;;
74821;SDS011;63353;48.702;8.884;2023-05-29T07:18:54;8.87;;;7.80;;
74821;SDS011;63353;48.702;8.884;2023-05-29T07:21:19;10.40;;;7.63;;
74821;SDS011;63353;48.702;8.884;2023-05-29T07:23:51;8.70;;;7.77;;
74821;SDS011;63353;48.702;8.884;2023-05-29T07:26:17;9.00;;;8.20;;
74821;SDS011;63353;48.702;8.884;2023-05-29T07:28:51;8.73;;;7.93;;
74821;SDS011;63353;48.702;8.884;2023-05-29T07:31:23;8.90;;;7.83;;
74821;SDS011;63353;48.702;8.884;2023-05-29T07:33:49;8.87;;;8.07;;
74821;SDS011;63353;48.702;8.884;2023-05-29T07:36:15;9.77;;;8.07;;
74821;SDS011;63353;48.702;8.884;2023-05-29T07:38:42;8.90;;;8.00;;
74821;SDS011;63353;48.702;8.884;2023-05-29T07:41:15;8.33;;;7.53;;
74821;SDS011;63353;48.702;8.884;2023-05-29T07:43:48;8.43;;;7.47;;
74821;SDS011;63353;48.702;8.884;2023-05-29T07:46:16;8.70;;;7.40;;
74821;SDS011;63353;48.702;8.884;2023-05-29T07:48:48;8.53;;;7.40;;
74821;SDS011;63353;48.702;8.884;2023-05-29T07:51:14;9.50;;;7.80;;
74821;SDS011;63353;48.702;8.884;2023-05-29T07:53:53;9.50;;;7.47;;
74821;SDS011;63353;48.702;8.884;2023-05-29T07:56:22;9.23;;;7.90;;
74821;SDS011;63353;48.702;8.884;2023-05-29T07:58:47;9.20;;;8.10;;
74821;SDS011;63353;48.702;8.884;2023-05-29T08:01:16;8.60;;;7.30;;
74821;SDS011;63353;48.702;8.884;2023-05-29T08:03:45;9.37;;;7.60;;
74821;SDS011;63353;48.702;8.884;2023-05-29T08:06:14;8.87;;;7.83;;
74821;SDS011;63353;48.702;8.884;2023-05-29T08:08:39;8.67;;;7.53;;
74821;SDS011;63353;48.702;8.884;2023-05-29T08:11:06;8.37;;;7.23;;
74821;SDS011;63353;48.702;8.884;2023-05-29T08:13:32;8.83;;;7.97;;
74821;SDS011;63353;48.702;8.884;2023-05-29T08:15:57;8.23;;;7.43;;
74821;SDS011;63353;48.702;8.884;2023-05-29T08:18:26;10.13;;;8.20;;
74821;SDS011;63353;48.702;8.884;2023-05-29T08:20:52;9.40;;;8.00;;
74821;SDS011;63353;48.702;8.884;2023-05-29T08:23:21;8.77;;;7.87;;
74821;SDS011;63353;48.702;8.884;2023-05-29T08:25:47;8.50;;;7.80;;
74821;SDS011;63353;48.702;8.884;2023-05-29T08:28:18;8.87;;;7.97;;
74821;SDS011;63353;48.702;8.884;2023-05-29T08:30:44;8.63;;;7.80;;
74821;SDS011;63353;48.702;8.884;2023-05-29T08:33:10;8.63;;;7.83;;
74821;SDS011;63353;48.702;8.884;2023-05-29T08:35:35;8.50;;;7.80;;
74821;SDS011;63353;48.702;8.884;2023-05-29T08:38:01;8.30;;;7.43;;
74821;SDS011;63353;48.702;8.884;2023-05-29T08:40:27;9.60;;;8.20;;
74821;SDS011;63353;48.702;8.884;2023-05-29T08:43:02;9.90;;;8.40;;
74821;SDS011;63353;48.702;8.884;2023-05-29T08:45:33;8.50;;;7.70;;
74821;SDS011;63353;48.702;8.884;2023-05-29T08:48:02;8.53;;;7.63;;
74821;SDS011;63353;48.702;8.884;2023-05-29T08:50:28;8.40;;;7.70;;
74821;SDS011;63353;48.702;8.884;2023-05-29T08:52:57;8.43;;;7.63;;
74821;SDS011;63353;48.702;8.884;2023-05-29T08:55:29;10.23;;;8.10;;
74821;SDS011;63353;48.702;8.884;2023-05-29T08:57:56;10.07;;;9.17;;
74821;SDS011;63353;48.702;8.884;2023-05-29T09:00:29;9.03;;;8.23;;
74821;SDS011;63353;48.702;8.884;2023-05-29T09:02:55;10.20;;;9.23;;
74821;SDS011;63353;48.702;8.884;2023-05-29T09:05:28;9.20;;;8.30;;
74821;SDS011;63353;48.702;8.884;2023-05-29T09:07:54;9.87;;;8.97;;
74821;SDS011;63353;48.702;8.884;2023-05-29T09:10:24;9.10;;;8.30;;
74821;SDS011;63353;48.702;8.884;2023-05-29T09:12:56;9.57;;;8.57;;
74821;SDS011;63353;48.702;8.884;2023-05-29T09:15:25;10.53;;;9.53;;
74821;SDS011;63353;48.702;8.884;2023-05-29T09:20:21;9.67;;;8.87;;
74821;SDS011;63353;48.702;8.884;2023-05-29T09:23:03;9.50;;;8.33;;
74821;SDS011;63353;48.702;8.884;2023-05-29T09:25:31;9.68;;;8.57;;
74821;SDS011;63353;48.702;8.884;2023-05-29T09:28:02;9.63;;;8.80;;
74821;SDS011;63353;48.702;8.884;2023-05-29T09:30:34;8.93;;;8.02;;
74821;SDS011;63353;48.702;8.884;2023-05-29T09:33:13;9.02;;;8.23;;
74821;SDS011;63353;48.702;8.884;2023-05-29T09:35:47;9.07;;;8.18;;
74821;SDS011;63353;48.702;8.884;2023-05-29T09:38:20;9.57;;;8.77;;
74821;SDS011;63353;48.702;8.884;2023-05-29T09:40:49;8.73;;;7.90;;
74821;SDS011;63353;48.702;8.884;2023-05-29T09:43:18;8.95;;;8.15;;
74821;SDS011;63353;48.702;8.884;2023-05-29T09:45:49;8.40;;;7.70;;
74821;SDS011;63353;48.702;8.884;2023-05-29T09:48:19;9.35;;;8.55;;
74821;SDS011;63353;48.702;8.884;2023-05-29T09:50:48;9.45;;;8.55;;
74821;SDS011;63353;48.702;8.884;2023-05-29T09:53:17;12.43;;;8.55;;
74821;SDS011;63353;48.702;8.884;2023-05-29T09:55:52;10.50;;;7.85;;
74821;SDS011;63353;48.702;8.884;2023-05-29T09:58:25;9.88;;;8.98;;
74821;SDS011;63353;48.702;8.884;2023-05-29T10:00:52;9.57;;;8.57;;
74821;SDS011;63353;48.702;8.884;2023-05-29T10:03:21;10.77;;;9.75;;
74821;SDS011;63353;48.702;8.884;2023-05-29T10:05:55;11.32;;;7.97;;
74821;SDS011;63353;48.702;8.884;2023-05-29T10:08:29;8.68;;;7.88;;
74821;SDS011;63353;48.702;8.884;2023-05-29T10:11:02;10.07;;;8.43;;
74821;SDS011;63353;48.702;8.884;2023-05-29T10:13:39;9.13;;;8.23;;
74821;SDS011;63353;48.702;8.884;2023-05-29T10:16:11;9.40;;;8.50;;
74821;SDS011;63353;48.702;8.884;2023-05-29T10:18:43;9.15;;;8.35;;
74821;SDS011;63353;48.702;8.884;2023-05-29T10:21:17;9.80;;;8.77;;
74821;SDS011;63353;48.702;8.884;2023-05-29T10:23:50;9.98;;;9.00;;
74821;SDS011;63353;48.702;8.884;2023-05-29T10:26:26;8.80;;;8.00;;
74821;SDS011;63353;48.702;8.884;2023-05-29T10:34:30;9.60;;;8.70;;
74821;SDS011;63353;48.702;8.884;2023-05-29T10:40:22;9.23;;;8.35;;
74821;SDS011;63353;48.702;8.884;2023-05-29T10:42:53;9.63;;;8.80;;
74821;SDS011;63353;48.702;8.884;2023-05-29T10:47:53;10.57;;;9.68;;
74821;SDS011;63353;48.702;8.884;2023-05-29T10:50:45;10.07;;;9.20;;
74821;SDS011;63353;48.702;8.884;2023-05-29T10:53:16;10.55;;;9.65;;
74821;SDS011;63353;48.702;8.884;2023-05-29T10:55:46;10.82;;;9.38;;
74821;SDS011;63353;48.702;8.884;2023-05-29T10:58:12;10.02;;;9.13;;
74821;SDS011;63353;48.702;8.884;2023-05-29T11:00:42;10.15;;;9.23;;
74821;SDS011;63353;48.702;8.884;2023-05-29T11:03:14;10.73;;;9.48;;
74821;SDS011;63353;48.702;8.884;2023-05-29T11:05:58;9.13;;;8.32;;
74821;SDS011;63353;48.702;8.884;2023-05-29T11:14:03;9.02;;;8.23;;
74821;SDS011;63353;48.702;8.884;2023-05-29T11:18:58;8.55;;;7.82;;
74821;SDS011;63353;48.702;8.884;2023-05-29T11:24:31;8.23;;;7.47;;
74821;SDS011;63353;48.702;8.884;2023-05-29T11:27:01;8.85;;;7.95;;
74821;SDS011;63353;48.702;8.884;2023-05-29T11:29:31;9.18;;;7.75;;
74821;SDS011;63353;48.702;8.884;2023-05-29T11:34:30;7.95;;;7.25;;
74821;SDS011;63353;48.702;8.884;2023-05-29T11:37:01;8.38;;;7.57;;
74821;SDS011;63353;48.702;8.884;2023-05-29T11:39:28;8.27;;;7.57;;
74821;SDS011;63353;48.702;8.884;2023-05-29T11:42:00;8.23;;;7.40;;
74821;SDS011;63353;48.702;8.884;2023-05-29T11:44:26;8.40;;;7.43;;
74821;SDS011;63353;48.702;8.884;2023-05-29T11:47:01;8.00;;;7.38;;
74821;SDS011;63353;48.702;8.884;2023-05-29T11:49:31;7.78;;;7.18;;
74821;SDS011;63353;48.702;8.884;2023-05-29T11:52:08;7.45;;;6.70;;
74821;SDS011;63353;48.702;8.884;2023-05-29T11:54:35;7.80;;;7.13;;
74821;SDS011;63353;48.702;8.884;2023-05-29T11:57:02;8.05;;;7.25;;
74821;SDS011;63353;48.702;8.884;2023-05-29T11:59:30;7.28;;;6.68;;
74821;SDS011;63353;48.702;8.884;2023-05-29T12:02:02;7.63;;;6.90;;
74821;SDS011;63353;48.702;8.884;2023-05-29T12:04:28;7.38;;;6.47;;
74821;SDS011;63353;48.702;8.884;2023-05-29T12:06:57;8.23;;;7.07;;
74821;SDS011;63353;48.702;8.884;2023-05-29T12:09:23;7.60;;;7.00;;
74821;SDS011;63353;48.702;8.884;2023-05-29T12:12:04;8.10;;;6.88;;
74821;SDS011;63353;48.702;8.884;2023-05-29T12:14:30;8.32;;;7.57;;
74821;SDS011;63353;48.702;8.884;2023-05-29T12:16:57;7.60;;;6.90;;
74821;SDS011;63353;48.702;8.884;2023-05-29T12:19:26;7.68;;;7.10;;
74821;SDS011;63353;48.702;8.884;2023-05-29T12:21:56;7.55;;;7.05;;
74821;SDS011;63353;48.702;8.884;2023-05-29T12:24:22;8.20;;;7.53;;
74821;SDS011;63353;48.702;8.884;2023-05-29T12:26:51;9.40;;;6.82;;
74821;SDS011;63353;48.702;8.884;2023-05-29T12:29:17;7.90;;;7.20;;
74821;SDS011;63353;48.702;8.884;2023-05-29T12:31:42;7.88;;;6.78;;
74821;SDS011;63353;48.702;8.884;2023-05-29T12:34:11;7.53;;;7.00;;
74821;SDS011;63353;48.702;8.884;2023-05-29T12:36:42;7.25;;;6.65;;
74821;SDS011;63353;48.702;8.884;2023-05-29T12:39:13;7.60;;;6.95;;
74821;SDS011;63353;48.702;8.884;2023-05-29T12:41:45;7.22;;;6.63;;
74821;SDS011;63353;48.702;8.884;2023-05-29T12:44:13;7.88;;;7.18;;
74821;SDS011;63353;48.702;8.884;2023-05-29T12:46:46;7.70;;;7.10;;
74821;SDS011;63353;48.702;8.884;2023-05-29T12:49:15;7.55;;;6.95;;
74821;SDS011;63353;48.702;8.884;2023-05-29T12:51:45;7.20;;;6.63;;
74821;SDS011;63353;48.702;8.884;2023-05-29T12:54:20;8.18;;;6.80;;
74821;SDS011;63353;48.702;8.884;2023-05-29T12:56:46;7.00;;;6.38;;
74821;SDS011;63353;48.702;8.884;2023-05-29T12:59:15;8.55;;;7.20;;
74821;SDS011;63353;48.702;8.884;2023-05-29T13:01:49;7.32;;;6.63;;
74821;SDS011;63353;48.702;8.884;2023-05-29T13:04:15;7.38;;;6.70;;
74821;SDS011;63353;48.702;8.884;2023-05-29T13:06:40;7.47;;;6.97;;
74821;SDS011;63353;48.702;8.884;2023-05-29T13:09:08;7.25;;;6.65;;
74821;SDS011;63353;48.702;8.884;2023-05-29T13:11:35;7.68;;;6.97;;
74821;SDS011;63353;48.702;8.884;2023-05-29T13:14:01;7.15;;;6.20;;
74821;SDS011;63353;48.702;8.884;2023-05-29T13:16:27;7.32;;;6.63;;
74821;SDS011;63353;48.702;8.884;2023-05-29T13:18:52;6.65;;;6.15;;
74821;SDS011;63353;48.702;8.884;2023-05-29T13:21:27;7.32;;;6.60;;
74821;SDS011;63353;48.702;8.884;2023-05-29T13:23:56;7.47;;;6.85;;
74821;SDS011;63353;48.702;8.884;2023-05-29T13:26:22;6.75;;;6.32;;
74821;SDS011;63353;48.702;8.884;2023-05-29T13:28:48;7.47;;;6.88;;
74821;SDS011;63353;48.702;8.884;2023-05-29T13:31:13;8.00;;;7.40;;
74821;SDS011;63353;48.702;8.884;2023-05-29T13:33:39;8.00;;;7.25;;
74821;SDS011;63353;48.702;8.884;2023-05-29T13:36:24;7.82;;;7.22;;
74821;SDS011;63353;48.702;8.884;2023-05-29T13:38:49;7.80;;;7.10;;
74821;SDS011;63353;48.702;8.884;2023-05-29T13:41:18;9.02;;;8.20;;
74821;SDS011;63353;48.702;8.884;2023-05-29T13:43:45;7.75;;;7.15;;
74821;SDS011;63353;48.702;8.884;2023-05-29T13:46:11;8.25;;;7.65;;
74821;SDS011;63353;48.702;8.884;2023-05-29T13:48:37;8.35;;;7.72;;
74821;SDS011;63353;48.702;8.884;2023-05-29T13:51:03;8.98;;;8.13;;
74821;SDS011;63353;48.702;8.884;2023-05-29T13:53:29;8.10;;;7.40;;
74821;SDS011;63353;48.702;8.884;2023-05-29T13:55:57;7.82;;;7.30;;
74821;SDS011;63353;48.702;8.884;2023-05-29T13:58:23;8.40;;;7.90;;
74821;SDS011;63353;48.702;8.884;2023-05-29T14:00:58;8.80;;;8.20;;
74821;SDS011;63353;48.702;8.884;2023-05-29T14:03:24;7.85;;;7.22;;
74821;SDS011;63353;48.702;8.884;2023-05-29T14:05:54;8.25;;;7.63;;
74821;SDS011;63353;48.702;8.884;2023-05-29T14:08:32;7.53;;;6.93;;
74821;SDS011;63353;48.702;8.884;2023-05-29T14:10:58;7.70;;;7.18;;
74821;SDS011;63353;48.702;8.884;2023-05-29T14:13:23;10.65;;;8.10;;
74821;SDS011;63353;48.702;8.884;2023-05-29T14:15:49;7.30;;;6.70;;
74821;SDS011;63353;48.702;8.884;2023-05-29T14:18:21;7.35;;;6.82;;
74821;SDS011;63353;48.702;8.884;2023-05-29T14:21:05;7.53;;;7.03;;
74821;SDS011;63353;48.702;8.884;2023-05-29T14:23:31;7.10;;;6.57;;
74821;SDS011;63353;48.702;8.884;2023-05-29T14:26:03;7.50;;;7.00;;
74821;SDS011;63353;48.702;8.884;2023-05-29T14:28:35;7.10;;;6.50;;
74821;SDS011;63353;48.702;8.884;2023-05-29T14:31:04;7.35;;;6.82;;
74821;SDS011;63353;48.702;8.884;2023-05-29T14:33:30;7.00;;;6.50;;
74821;SDS011;63353;48.702;8.884;2023-05-29T14:36:02;7.60;;;7.03;;
74821;SDS011;63353;48.702;8.884;2023-05-29T14:38:28;8.13;;;7.40;;
74821;SDS011;63353;48.702;8.884;2023-05-29T14:41:00;7.20;;;6.70;;
74821;SDS011;63353;48.702;8.884;2023-05-29T14:43:32;9.63;;;9.02;;
74821;SDS011;63353;48.702;8.884;2023-05-29T14:45:58;9.52;;;8.93;;
74821;SDS011;63353;48.702;8.884;2023-05-29T14:48:26;11.60;;;10.52;;
74821;SDS011;63353;48.702;8.884;2023-05-29T14:50:52;10.35;;;9.57;;
74821;SDS011;63353;48.702;8.884;2023-05-29T14:53:17;11.32;;;10.55;;
74821;SDS011;63353;48.702;8.884;2023-05-29T14:55:48;9.65;;;9.07;;
74821;SDS011;63353;48.702;8.884;2023-05-29T14:58:20;10.32;;;9.73;;
74821;SDS011;63353;48.702;8.884;2023-05-29T15:00:46;7.32;;;6.82;;
74821;SDS011;63353;48.702;8.884;2023-05-29T15:03:18;8.35;;;7.85;;
74821;SDS011;63353;48.702;8.884;2023-05-29T15:05:54;7.55;;;7.05;;
74821;SDS011;63353;48.702;8.884;2023-05-29T15:08:20;9.15;;;8.45;;
74821;SDS011;63353;48.702;8.884;2023-05-29T15:10:55;8.70;;;8.20;;
74821;SDS011;63353;48.702;8.884;2023-05-29T15:13:26;9.63;;;8.93;;
74821;SDS011;63353;48.702;8.884;2023-05-29T15:15:55;8.48;;;7.97;;
74821;SDS011;63353;48.702;8.884;2023-05-29T15:18:24;9.30;;;8.73;;
74821;SDS011;63353;48.702;8.884;2023-05-29T15:20:57;8.10;;;7.53;;
74821;SDS011;63353;48.702;8.884;2023-05-29T15:23:29;7.75;;;7.25;;
74821;SDS011;63353;48.702;8.884;2023-05-29T15:25:55;7.72;;;7.20;;
74821;SDS011;63353;48.702;8.884;2023-05-29T15:28:24;8.48;;;7.95;;